Time;durP1;ratioP1;P1;durP2;ratioP2;P2;SDS_P1;SDS_P2;PMS_P1;PMS_P2;Temp;Humidity;BMP_temperature;BMP_pressure;BME280_temperature;BME280_humidity;BME280_pressure;Samples;Min_cycle;Max_cycle;Signal;HPM_P1;HPM_P2
2021/06/26 00:02:29;;;;;;;;;20.75;18.75;;;;;21.38;82.45;99405.59;3559114;40;12284;-56
2021/06/26 00:04:58;;;;;;;;;17.25;14.50;;;;;21.24;81.60;99407.97;3562282;40;12723;-55
2021/06/26 00:07:26;;;;;;;;;20.25;17.75;;;;;21.43;80.87;99417.75;3555144;40;12381;-56
2021/06/26 00:09:59;;;;;;;;;18.25;16.25;;;;;21.19;82.96;99412.22;3567218;40;12559;-56
2021/06/26 00:12:28;;;;;;;;;17.50;17.50;;;;;21.68;78.78;99415.00;3562352;40;12921;-54
2021/06/26 00:14:58;;;;;;;;;15.50;15.50;;;;;21.52;79.86;99415.00;3558003;40;12806;-55
2021/06/26 00:17:26;;;;;;;;;18.00;18.00;;;;;21.21;81.58;99421.09;3565089;40;12139;-57
2021/06/26 00:19:55;;;;;;;;;16.25;15.00;;;;;21.16;80.94;99413.41;3556445;40;12585;-54
2021/06/26 00:22:25;;;;;;;;;14.75;14.75;;;;;21.59;79.23;99411.41;3555883;40;12015;-55
2021/06/26 00:24:53;;;;;;;;;16.75;15.50;;;;;21.25;80.74;99415.16;3556860;40;12930;-58
2021/06/26 00:27:24;;;;;;;;;18.00;18.00;;;;;21.05;81.85;99414.59;3560387;40;12340;-56
2021/06/26 00:29:52;;;;;;;;;20.50;15.50;;;;;21.10;80.51;99416.84;3562458;40;12420;-57
2021/06/26 00:32:22;;;;;;;;;19.50;17.00;;;;;21.08;79.94;99423.47;3559585;40;12458;-57
2021/06/26 00:34:50;;;;;;;;;19.50;18.00;;;;;21.03;80.75;99426.72;3558179;40;12563;-56
2021/06/26 00:37:19;;;;;;;;;19.75;16.00;;;;;20.88;81.09;99440.19;3559693;40;12662;-56
2021/06/26 00:39:48;;;;;;;;;21.75;19.00;;;;;20.37;82.67;99431.94;3557849;40;12605;-56
2021/06/26 00:42:16;;;;;;;;;19.00;19.00;;;;;20.30;83.40;99430.00;3557369;40;12916;-54
2021/06/26 00:44:44;;;;;;;;;18.75;18.75;;;;;20.18;83.55;99437.63;3560180;40;12560;-56
2021/06/26 00:47:12;;;;;;;;;17.50;16.25;;;;;19.85;84.29;99431.13;3558129;40;13028;-56
2021/06/26 00:49:41;;;;;;;;;25.50;20.00;;;;;19.42;87.64;99439.13;3557705;40;12933;-57
2021/06/26 00:52:09;;;;;;;;;21.75;21.75;;;;;19.76;86.14;99443.00;3558220;40;13399;-56
2021/06/26 00:54:37;;;;;;;;;21.50;20.00;;;;;19.66;86.30;99443.06;3562912;40;13381;-55
2021/06/26 00:57:08;;;;;;;;;24.25;19.50;;;;;19.12;88.79;99450.44;3559823;40;14083;-55
2021/06/26 00:59:35;;;;;;;;;7.75;6.25;;;;;18.94;89.64;99443.09;3558082;40;13535;-56
2021/06/26 01:02:04;;;;;;;;;24.00;21.75;;;;;19.13;90.17;99446.69;3559441;40;13996;-55
2021/06/26 01:04:31;;;;;;;;;18.25;18.00;;;;;19.90;85.89;99450.59;3560631;40;14155;-54
2021/06/26 01:06:59;;;;;;;;;22.25;19.00;;;;;19.63;87.04;99446.94;3559648;40;13573;-54
2021/06/26 01:09:26;;;;;;;;;22.25;20.50;;;;;19.49;87.81;99442.94;3558447;40;14023;-57
2021/06/26 01:12:00;;;;;;;;;19.75;18.25;;;;;19.41;87.46;99440.16;3558730;40;13564;-51
2021/06/26 01:14:30;;;;;;;;;23.50;18.75;;;;;19.22;87.80;99441.19;3558983;40;13505;-54
2021/06/26 01:17:05;;;;;;;;;30.25;27.25;;;;;19.44;87.76;99439.84;3560902;40;14154;-55
2021/06/26 01:19:33;;;;;;;;;21.00;19.75;;;;;18.83;89.14;99446.06;3559825;40;14167;-55
2021/06/26 01:22:06;;;;;;;;;22.00;19.25;;;;;19.04;89.30;99449.34;3557869;40;14132;-54
2021/06/26 01:24:35;;;;;;;;;20.00;17.25;;;;;18.84;90.44;99470.38;3559995;40;13998;-55
2021/06/26 01:27:04;;;;;;;;;24.75;20.75;;;;;18.89;90.69;99480.81;3558309;40;14095;-59
2021/06/26 01:29:31;;;;;;;;;24.00;20.00;;;;;18.85;91.03;99476.66;3557811;40;14001;-56
2021/06/26 01:31:58;;;;;;;;;22.00;19.25;;;;;19.27;89.27;99471.50;3557575;40;14042;-55
2021/06/26 01:34:25;;;;;;;;;23.75;21.25;;;;;19.82;86.49;99467.72;3557456;40;14080;-57
2021/06/26 01:36:53;;;;;;;;;23.75;20.00;;;;;19.06;89.79;99469.09;3560969;40;14129;-56
2021/06/26 01:39:20;;;;;;;;;23.50;18.00;;;;;19.13;90.73;99468.47;3564914;40;14130;-56
2021/06/26 01:41:47;;;;;;;;;21.50;21.25;;;;;19.01;91.25;99468.69;3559302;40;14013;-56
2021/06/26 01:44:14;;;;;;;;;20.25;18.00;;;;;19.36;90.50;99472.44;3558035;40;14098;-54
2021/06/26 01:46:42;;;;;;;;;25.50;23.00;;;;;19.41;89.88;99461.09;3560895;40;14004;-57
2021/06/26 01:49:11;;;;;;;;;24.25;22.00;;;;;19.32;90.37;99460.13;3561855;40;14035;-55
2021/06/26 01:51:40;;;;;;;;;24.00;20.50;;;;;19.98;87.60;99457.97;3558066;40;14002;-55
2021/06/26 01:54:09;;;;;;;;;22.75;20.50;;;;;19.91;86.69;99464.06;3557552;40;14134;-54
2021/06/26 01:56:37;;;;;;;;;22.00;21.00;;;;;19.70;87.64;99469.00;3562692;40;14110;-52
2021/06/26 01:59:06;;;;;;;;;27.25;21.75;;;;;19.70;87.47;99480.75;3561669;40;14041;-55
2021/06/26 02:01:35;;;;;;;;;25.75;22.25;;;;;18.95;90.64;99477.44;3560830;40;14015;-56
2021/06/26 02:04:03;;;;;;;;;27.25;22.00;;;;;18.63;92.94;99473.31;3557367;40;14079;-55
2021/06/26 02:06:30;;;;;;;;;22.25;20.50;;;;;18.54;93.14;99479.69;3560007;40;14067;-55
2021/06/26 02:08:58;;;;;;;;;24.75;23.00;;;;;18.96;92.36;99483.78;3556684;40;14044;-56
2021/06/26 02:11:25;;;;;;;;;24.75;20.75;;;;;18.58;92.58;99474.78;3557811;40;14113;-54
2021/06/26 02:13:53;;;;;;;;;26.50;23.00;;;;;18.79;91.53;99471.84;3558457;40;14285;-54
2021/06/26 02:16:23;;;;;;;;;23.25;21.75;;;;;19.24;89.53;99465.50;3563380;40;14065;-56
2021/06/26 02:18:50;;;;;;;;;23.50;21.00;;;;;19.30;89.14;99464.91;3557017;40;14614;-56
2021/06/26 02:21:17;;;;;;;;;26.25;19.00;;;;;19.36;89.33;99464.28;3562024;40;14029;-55
2021/06/26 02:23:45;;;;;;;;;25.00;20.50;;;;;19.17;89.38;99468.00;3558498;40;14024;-54
2021/06/26 02:26:12;;;;;;;;;24.75;21.50;;;;;18.97;89.76;99469.16;3561574;40;14022;-55
2021/06/26 02:28:39;;;;;;;;;24.50;23.50;;;;;18.78;90.60;99481.00;3558176;40;14590;-55
2021/06/26 02:31:07;;;;;;;;;21.00;20.50;;;;;18.51;93.29;99476.38;3558276;40;14035;-55
2021/06/26 02:33:34;;;;;;;;;26.50;23.00;;;;;19.36;88.72;99475.16;3559742;40;14037;-55
2021/06/26 02:36:02;;;;;;;;;19.00;19.00;;;;;19.26;87.81;99488.00;3561686;40;14101;-54
2021/06/26 02:38:29;;;;;;;;;23.75;20.50;;;;;19.32;87.46;99484.63;3559424;40;14126;-53
2021/06/26 02:40:57;;;;;;;;;27.25;21.00;;;;;19.29;87.45;99485.81;3560225;40;14232;-54
2021/06/26 02:43:24;;;;;;;;;23.50;22.00;;;;;19.19;87.70;99478.72;3560017;40;14211;-55
2021/06/26 02:45:51;;;;;;;;;18.25;18.25;;;;;19.15;87.94;99482.78;3559637;40;14619;-54
2021/06/26 02:48:19;;;;;;;;;18.25;16.75;;;;;19.48;85.85;99484.81;3558756;40;14488;-56
2021/06/26 02:50:46;;;;;;;;;22.00;18.00;;;;;18.98;87.79;99490.75;3560116;40;14032;-55
2021/06/26 02:53:13;;;;;;;;;20.00;18.00;;;;;19.17;87.61;99483.47;3559842;40;14224;-55
2021/06/26 02:55:40;;;;;;;;;21.75;19.25;;;;;19.18;87.67;99493.34;3560507;40;14227;-52
2021/06/26 02:58:08;;;;;;;;;24.50;22.00;;;;;19.36;86.98;99486.06;3556935;40;14016;-56
2021/06/26 03:00:35;;;;;;;;;26.00;20.25;;;;;19.16;87.10;99484.47;3564448;40;14026;-55
2021/06/26 03:03:04;;;;;;;;;20.50;18.75;;;;;19.87;83.58;99484.44;3557548;40;14100;-56
2021/06/26 03:05:31;;;;;;;;;25.25;20.25;;;;;19.27;86.63;99473.34;3559770;40;14061;-54
2021/06/26 03:07:58;;;;;;;;;24.75;20.25;;;;;19.50;85.85;99480.03;3558735;40;14013;-55
2021/06/26 03:10:25;;;;;;;;;22.00;17.75;;;;;19.31;85.84;99477.50;3559755;40;14036;-54
2021/06/26 03:12:53;;;;;;;;;21.00;19.75;;;;;19.40;85.71;99481.13;3557297;40;14084;-56
2021/06/26 03:15:20;;;;;;;;;24.50;21.00;;;;;19.04;87.51;99487.44;3558209;40;14052;-52
2021/06/26 03:17:48;;;;;;;;;22.75;20.25;;;;;18.74;88.61;99490.44;3562372;40;14009;-50
2021/06/26 03:20:15;;;;;;;;;20.50;19.50;;;;;18.44;89.60;99478.88;3562927;40;14055;-57
2021/06/26 03:22:42;;;;;;;;;23.75;19.25;;;;;18.01;90.89;99485.75;3558779;40;14534;-58
2021/06/26 03:25:13;;;;;;;;;25.25;22.75;;;;;17.92;90.19;99481.19;3557388;40;14252;-58
2021/06/26 03:27:42;;;;;;;;;25.75;22.00;;;;;17.87;90.56;99480.75;3562130;40;14151;-58
2021/06/26 03:30:10;;;;;;;;;24.25;18.75;;;;;17.38;92.37;99479.91;3556360;40;14241;-58
2021/06/26 03:32:37;;;;;;;;;27.50;20.75;;;;;17.85;91.91;99477.31;3556765;40;14096;-59
2021/06/26 03:35:06;;;;;;;;;22.00;19.75;;;;;18.79;87.45;99482.72;3557765;40;14076;-59
2021/06/26 03:37:33;;;;;;;;;22.00;20.00;;;;;19.11;86.39;99471.31;3556331;40;14498;-58
2021/06/26 03:40:01;;;;;;;;;19.75;19.00;;;;;19.40;86.15;99476.53;3560687;40;14072;-59
2021/06/26 03:42:28;;;;;;;;;20.75;19.00;;;;;19.65;84.64;99480.34;3560446;40;13995;-58
2021/06/26 03:44:56;;;;;;;;;21.25;21.25;;;;;19.46;85.57;99489.56;3555628;40;14067;-59
2021/06/26 03:47:25;;;;;;;;;21.50;19.00;;;;;19.71;84.21;99487.91;3558409;40;14230;-59
2021/06/26 03:49:53;;;;;;;;;21.50;20.50;;;;;19.17;86.39;99488.91;3557532;40;14145;-60
2021/06/26 03:52:20;;;;;;;;;23.00;21.50;;;;;19.15;86.36;99489.06;3558332;40;14199;-59
2021/06/26 03:54:47;;;;;;;;;22.50;21.25;;;;;19.20;85.15;99489.47;3560532;40;14051;-59
2021/06/26 03:57:14;;;;;;;;;19.25;18.25;;;;;19.40;85.57;99490.16;3558307;40;14203;-60
2021/06/26 03:59:42;;;;;;;;;19.00;18.00;;;;;19.56;84.76;99491.31;3556706;40;14035;-59
2021/06/26 04:02:09;;;;;;;;;20.25;18.00;;;;;19.42;85.69;99490.88;3559756;40;14229;-59
2021/06/26 04:04:37;;;;;;;;;21.50;18.50;;;;;19.53;84.97;99487.03;3557321;40;14070;-59
2021/06/26 04:07:05;;;;;;;;;18.50;15.00;;;;;19.90;82.86;99495.03;3556970;40;13724;-61
2021/06/26 04:09:32;;;;;;;;;26.50;19.25;;;;;20.23;81.59;99489.81;3563674;40;14069;-60
2021/06/26 04:11:59;;;;;;;;;21.25;18.75;;;;;20.17;81.25;99493.19;3561869;40;14018;-61
2021/06/26 04:14:27;;;;;;;;;19.25;17.75;;;;;20.49;80.04;99492.50;3563459;40;13552;-60
2021/06/26 04:16:54;;;;;;;;;19.00;18.25;;;;;20.16;82.53;99486.00;3559159;40;13945;-61
2021/06/26 04:19:21;;;;;;;;;18.50;16.50;;;;;20.53;80.50;99490.31;3561228;40;13407;-61
2021/06/26 04:21:49;;;;;;;;;20.25;17.25;;;;;20.68;79.55;99482.41;3560474;40;13519;-62
2021/06/26 04:24:16;;;;;;;;;21.50;18.00;;;;;20.61;79.64;99484.91;3556917;40;13103;-61
2021/06/26 04:26:43;;;;;;;;;23.50;19.00;;;;;20.43;80.36;99479.50;3559526;40;12962;-61
2021/06/26 04:29:11;;;;;;;;;23.25;19.25;;;;;20.46;81.59;99486.50;3558263;40;12840;-60
2021/06/26 04:31:38;;;;;;;;;21.00;18.50;;;;;20.30;83.36;99479.97;3556515;40;13003;-60
2021/06/26 04:34:06;;;;;;;;;19.75;18.00;;;;;20.24;83.81;99480.59;3556441;40;13112;-60
2021/06/26 04:36:33;;;;;;;;;18.50;18.50;;;;;20.21;83.51;99483.66;3558402;40;13426;-60
2021/06/26 04:39:01;;;;;;;;;20.00;20.00;;;;;20.74;80.70;99488.03;3562494;40;13183;-60
2021/06/26 04:41:28;;;;;;;;;22.50;19.00;;;;;20.97;79.36;99490.16;3556652;40;13099;-61
2021/06/26 04:43:55;;;;;;;;;18.50;17.00;;;;;20.90;80.07;99491.84;3556535;40;12958;-60
2021/06/26 04:46:23;;;;;;;;;22.50;18.00;;;;;20.90;80.15;99487.25;3556245;40;12915;-60
2021/06/26 04:48:50;;;;;;;;;17.50;17.25;;;;;22.61;74.76;99492.91;3556415;40;13468;-60
2021/06/26 04:51:19;;;;;;;;;18.50;17.50;;;;;24.89;64.79;99501.19;3556027;40;12693;-60
2021/06/26 04:53:46;;;;;;;;;23.50;19.50;;;;;22.19;74.03;99494.88;3557476;40;11716;-60
2021/06/26 04:56:13;;;;;;;;;12.75;11.50;;;;;22.64;72.73;99498.00;3552282;40;11205;-61
2021/06/26 04:58:41;;;;;;;;;17.00;14.50;;;;;22.69;70.71;99507.41;3556069;40;11180;-60
2021/06/26 05:01:08;;;;;;;;;18.50;18.00;;;;;22.10;73.86;99504.97;3556833;40;11205;-60
2021/06/26 05:03:35;;;;;;;;;17.25;16.25;;;;;22.09;73.31;99499.66;3558074;40;11777;-61
2021/06/26 05:06:03;;;;;;;;;19.25;17.25;;;;;22.42;73.75;99511.44;3556409;40;11780;-61
2021/06/26 05:08:30;;;;;;;;;19.25;18.00;;;;;22.59;72.58;99506.75;3556725;40;11729;-60
2021/06/26 05:10:57;;;;;;;;;20.00;18.25;;;;;22.48;72.52;99505.25;3556069;40;12083;-60
2021/06/26 05:13:25;;;;;;;;;19.50;17.75;;;;;22.67;72.46;99508.59;3555589;40;12004;-60
2021/06/26 05:15:52;;;;;;;;;20.00;18.00;;;;;22.93;70.98;99503.72;3562862;40;12011;-60
2021/06/26 05:18:19;;;;;;;;;24.75;19.75;;;;;23.08;70.01;99503.84;3555884;40;11908;-60
2021/06/26 05:20:47;;;;;;;;;23.50;19.75;;;;;23.18;69.87;99503.63;3555661;40;11707;-60
2021/06/26 05:23:19;;;;;;;;;23.00;18.50;;;;;23.47;68.95;99510.28;3555873;40;11599;-60
2021/06/26 05:25:48;;;;;;;;;21.75;18.00;;;;;23.47;67.75;99515.75;3557544;40;11875;-60
2021/06/26 05:28:17;;;;;;;;;20.75;16.75;;;;;23.52;66.87;99513.31;3557359;40;11478;-60
2021/06/26 05:30:44;;;;;;;;;24.50;19.75;;;;;23.59;68.08;99508.81;3559514;40;11677;-60
2021/06/26 05:33:12;;;;;;;;;18.25;17.50;;;;;23.43;68.51;99515.25;3561304;40;11687;-60
2021/06/26 05:35:40;;;;;;;;;20.25;16.50;;;;;23.64;68.70;99517.31;3557850;40;11777;-60
2021/06/26 05:38:08;;;;;;;;;21.00;18.25;;;;;23.83;66.19;99516.88;3557495;40;10933;-61
2021/06/26 05:40:35;;;;;;;;;22.75;18.00;;;;;24.20;65.38;99514.31;3560566;40;11044;-60
2021/06/26 05:43:03;;;;;;;;;20.50;16.25;;;;;24.27;64.75;99524.34;3558018;40;11016;-60
2021/06/26 05:45:31;;;;;;;;;15.50;15.00;;;;;23.72;67.10;99522.78;3560919;40;10792;-60
2021/06/26 05:47:58;;;;;;;;;17.00;16.00;;;;;24.36;63.85;99522.38;3559648;40;10906;-60
2021/06/26 05:50:26;;;;;;;;;14.25;14.25;;;;;24.43;63.08;99523.31;3558922;40;10753;-61
2021/06/26 05:52:55;;;;;;;;;24.00;18.50;;;;;24.42;64.01;99527.13;3560271;40;10785;-60
2021/06/26 05:55:25;;;;;;;;;21.00;18.00;;;;;24.67;63.59;99535.09;3559319;40;10898;-61
2021/06/26 05:57:53;;;;;;;;;20.75;18.50;;;;;24.65;61.97;99534.47;3557177;40;10636;-62
2021/06/26 06:00:22;;;;;;;;;19.00;15.67;;;;;24.82;61.95;99537.84;3558280;40;10879;-60
2021/06/26 06:02:50;;;;;;;;;17.67;17.00;;;;;24.74;62.08;99541.53;3559779;40;10239;-62
2021/06/26 06:05:18;;;;;;;;;19.75;17.25;;;;;24.90;60.99;99535.84;3558520;40;10484;-62
2021/06/26 06:07:46;;;;;;;;;16.00;15.33;;;;;25.25;59.61;99538.88;3559695;40;10361;-60
2021/06/26 06:10:16;;;;;;;;;14.33;14.00;;;;;25.28;59.92;99538.50;3561965;40;10184;-59
2021/06/26 06:12:44;;;;;;;;;19.33;17.00;;;;;25.31;61.34;99542.75;3557225;40;10220;-60
2021/06/26 06:15:13;;;;;;;;;20.00;15.00;;;;;24.92;61.21;99541.16;3561173;40;10208;-59
2021/06/26 06:17:41;;;;;;;;;26.33;17.67;;;;;25.42;59.44;99550.47;3557607;40;9954;-59
2021/06/26 06:20:09;;;;;;;;;14.67;14.33;;;;;25.71;58.02;99548.69;3557584;40;10078;-59
2021/06/26 06:22:37;;;;;;;;;17.67;17.33;;;;;25.29;59.09;99555.81;3562269;40;10138;-60
2021/06/26 06:25:10;;;;;;;;;20.33;16.67;;;;;25.88;56.31;99544.63;3559520;40;10401;-61
2021/06/26 06:27:41;;;;;;;;;12.67;11.33;;;;;24.55;60.38;99556.69;3562194;40;9938;-59
2021/06/26 06:30:11;;;;;;;;;25.67;20.33;;;;;25.97;56.48;99557.22;3558283;40;9993;-60
2021/06/26 06:32:38;;;;;;;;;15.00;15.00;;;;;25.53;58.78;99557.38;3559711;40;10090;-59
2021/06/26 06:35:07;;;;;;;;;17.50;16.00;;;;;24.94;59.48;99563.81;3559817;40;10043;-59
2021/06/26 06:37:37;;;;;;;;;20.33;17.00;;;;;26.32;56.05;99568.31;3557318;40;10404;-59
2021/06/26 06:40:11;;;;;;;;;20.67;17.00;;;;;25.93;58.42;99577.06;3561807;40;10158;-60
2021/06/26 06:42:39;;;;;;;;;18.25;15.50;;;;;26.44;55.23;99583.25;3564163;40;9948;-58
2021/06/26 06:45:08;;;;;;;;;17.00;17.00;;;;;26.22;57.37;99584.31;3561652;40;9965;-55
2021/06/26 06:47:35;;;;;;;;;17.50;15.25;;;;;26.49;54.86;99586.25;3561205;40;10035;-58
2021/06/26 06:50:05;;;;;;;;;16.50;15.50;;;;;26.16;56.26;99593.38;3562306;40;9944;-52
2021/06/26 06:52:32;;;;;;;;;20.25;15.75;;;;;26.11;56.75;99584.84;3556840;40;10153;-53
2021/06/26 06:55:00;;;;;;;;;19.25;14.25;;;;;25.68;57.22;99590.31;3563120;40;9885;-55
2021/06/26 06:57:27;;;;;;;;;16.75;14.75;;;;;26.22;56.25;99595.31;3559904;40;9913;-57
2021/06/26 06:59:55;;;;;;;;;22.50;16.75;;;;;26.24;56.42;99593.22;3556920;40;9909;-53
2021/06/26 07:02:22;;;;;;;;;20.25;18.00;;;;;27.29;52.25;99597.81;3557829;40;9959;-59
2021/06/26 07:04:50;;;;;;;;;18.00;15.25;;;;;27.49;51.86;99602.53;3557263;40;9958;-56
2021/06/26 07:07:18;;;;;;;;;15.00;15.00;;;;;27.73;51.11;99596.47;3559627;40;10570;-56
2021/06/26 07:09:45;;;;;;;;;16.25;14.25;;;;;27.67;50.60;99600.06;3560453;40;9934;-54
2021/06/26 07:12:13;;;;;;;;;20.00;15.75;;;;;26.97;54.14;99602.06;3560390;40;10098;-56
2021/06/26 07:14:40;;;;;;;;;16.75;15.50;;;;;27.91;51.02;99595.06;3558248;40;9969;-56
2021/06/26 07:17:07;;;;;;;;;17.75;15.25;;;;;28.06;50.64;99597.63;3558619;40;9888;-57
2021/06/26 07:19:35;;;;;;;;;16.25;15.75;;;;;26.54;53.81;99593.06;3557304;40;9926;-54
2021/06/26 07:22:03;;;;;;;;;15.50;13.00;;;;;28.44;47.50;99589.63;3559538;40;10148;-55
2021/06/26 07:24:30;;;;;;;;;13.75;11.50;;;;;28.45;48.71;99588.53;3558185;40;10139;-57
2021/06/26 07:26:58;;;;;;;;;13.00;13.00;;;;;28.42;47.52;99586.19;3563605;40;9979;-56
2021/06/26 07:29:25;;;;;;;;;15.00;11.75;;;;;26.61;51.00;99578.28;3556328;40;9892;-57
2021/06/26 07:31:52;;;;;;;;;14.25;13.00;;;;;27.83;47.80;99573.16;3560894;40;9964;-58
2021/06/26 07:34:20;;;;;;;;;15.50;13.50;;;;;28.26;46.88;99578.34;3561398;40;10113;-58
2021/06/26 07:36:47;;;;;;;;;15.25;14.50;;;;;28.27;47.41;99582.78;3559496;40;10027;-59
2021/06/26 07:39:14;;;;;;;;;11.50;11.50;;;;;28.06;47.75;99584.66;3560913;40;10111;-58
2021/06/26 07:41:42;;;;;;;;;17.00;14.00;;;;;28.41;47.11;99578.94;3559977;40;10049;-58
2021/06/26 07:44:09;;;;;;;;;14.50;14.25;;;;;27.47;49.09;99571.59;3560523;40;10049;-59
2021/06/26 07:46:36;;;;;;;;;16.50;15.00;;;;;28.31;47.09;99567.50;3556974;40;10675;-59
2021/06/26 07:49:04;;;;;;;;;16.50;15.25;;;;;27.96;47.87;99563.03;3557043;40;9932;-59
2021/06/26 07:51:31;;;;;;;;;14.75;13.50;;;;;28.30;48.08;99565.78;3559621;40;10046;-58
2021/06/26 07:53:58;;;;;;;;;16.50;14.00;;;;;28.43;48.81;99565.78;3559719;40;10125;-59
2021/06/26 07:56:26;;;;;;;;;17.50;13.00;;;;;28.00;48.75;99567.03;3564977;40;10109;-59
2021/06/26 07:58:53;;;;;;;;;15.25;12.25;;;;;28.67;46.80;99561.53;3559504;40;10086;-58
2021/06/26 08:01:21;;;;;;;;;14.00;14.00;;;;;28.56;46.75;99564.94;3558121;40;9951;-58
2021/06/26 08:03:48;;;;;;;;;16.25;13.75;;;;;28.11;47.75;99559.19;3559751;40;9901;-58
2021/06/26 08:06:16;;;;;;;;;16.25;14.25;;;;;28.36;46.54;99560.28;3556898;40;9933;-58
2021/06/26 08:08:43;;;;;;;;;11.25;11.25;;;;;27.78;48.92;99560.84;3556784;40;10091;-58
2021/06/26 08:11:10;;;;;;;;;13.50;13.50;;;;;28.23;47.50;99558.38;3557060;40;10447;-58
2021/06/26 08:13:38;;;;;;;;;14.75;13.75;;;;;28.58;45.74;99558.16;3559019;40;10056;-58
2021/06/26 08:16:05;;;;;;;;;15.25;12.50;;;;;28.75;45.49;99558.53;3558444;40;10055;-59
2021/06/26 08:18:32;;;;;;;;;11.25;10.50;;;;;28.38;45.49;99557.28;3556876;40;9969;-59
2021/06/26 08:21:00;;;;;;;;;12.75;10.50;;;;;28.80;44.81;99555.97;3556458;40;9843;-58
2021/06/26 08:23:27;;;;;;;;;12.75;11.25;;;;;29.39;45.68;99564.31;3561441;40;9931;-60
2021/06/26 08:25:54;;;;;;;;;12.25;11.00;;;;;27.26;48.91;99547.75;3558142;40;9944;-63
2021/06/26 08:28:22;;;;;;;;;13.25;11.00;;;;;28.47;46.48;99553.28;3562344;40;10042;-63
2021/06/26 08:30:49;;;;;;;;;12.50;12.50;;;;;28.33;47.00;99541.38;3556699;40;9880;-61
2021/06/26 08:33:17;;;;;;;;;14.75;14.00;;;;;28.97;46.46;99550.84;3562475;40;9947;-63
2021/06/26 08:35:44;;;;;;;;;16.75;12.00;;;;;29.19;46.71;99551.41;3557194;40;9954;-62
2021/06/26 08:38:12;;;;;;;;;14.00;10.75;;;;;29.09;44.70;99548.25;3563094;40;9916;-63
2021/06/26 08:40:40;;;;;;;;;13.75;13.00;;;;;29.02;46.20;99548.25;3556375;40;10145;-61
2021/06/26 08:43:07;;;;;;;;;15.00;13.75;;;;;28.78;45.66;99548.97;3560183;40;9859;-64
2021/06/26 08:45:37;;;;;;;;;14.25;13.75;;;;;28.97;45.91;99553.59;3556927;40;9948;-63
2021/06/26 08:48:05;;;;;;;;;14.00;13.25;;;;;28.53;47.69;99555.19;3559774;40;10208;-62
2021/06/26 08:50:33;;;;;;;;;12.25;11.25;;;;;28.09;46.99;99542.84;3557688;40;10128;-63
2021/06/26 08:53:00;;;;;;;;;16.50;10.75;;;;;28.79;45.06;99542.38;3560781;40;10042;-63
2021/06/26 08:55:28;;;;;;;;;14.25;11.75;;;;;28.99;42.79;99543.19;3556976;40;9930;-64
2021/06/26 08:57:56;;;;;;;;;12.25;10.25;;;;;29.10;42.08;99544.44;3558107;40;9927;-62
2021/06/26 09:00:26;;;;;;;;;11.50;9.00;;;;;29.62;42.85;99547.16;3558323;40;9933;-63
2021/06/26 09:03:16;;;;;;;;;10.50;9.75;;;;;29.65;43.43;99543.97;3561421;40;9834;-65
2021/06/26 09:05:46;;;;;;;;;11.00;9.00;;;;;29.07;42.66;99540.19;3559956;40;10549;-65
2021/06/26 09:08:17;;;;;;;;;12.00;12.00;;;;;29.17;43.03;99536.94;3559778;40;9881;-63
2021/06/26 09:10:49;;;;;;;;;12.75;11.75;;;;;29.16;42.62;99537.19;3560589;40;10118;-63
2021/06/26 09:13:23;;;;;;;;;15.00;11.50;;;;;29.37;43.21;99534.09;3558309;40;9957;-64
2021/06/26 09:16:11;;;;;;;;;11.00;10.00;;;;;29.00;44.58;99538.50;3558976;40;9992;-63
2021/06/26 09:18:48;;;;;;;;;13.25;12.00;;;;;28.65;45.34;99531.38;3557952;40;10015;-63
2021/06/26 09:24:05;;;;;;;;;18.25;14.75;;;;;28.80;45.84;99524.72;3560702;40;9885;-64
2021/06/26 09:26:35;;;;;;;;;12.25;11.00;;;;;30.03;43.27;99541.16;3557569;40;10483;-63
2021/06/26 09:29:17;;;;;;;;;14.50;11.25;;;;;29.39;43.58;99523.69;3557605;40;9910;-61
2021/06/26 09:32:02;;;;;;;;;16.75;13.00;;;;;29.62;44.36;99530.53;3562181;40;9930;-60
2021/06/26 09:34:44;;;;;;;;;13.75;12.75;;;;;29.97;43.03;99519.91;3562987;40;9872;-66
2021/06/26 09:37:31;;;;;;;;;16.25;14.50;;;;;30.38;43.07;99530.44;3557625;40;9881;-63
2021/06/26 09:40:00;;;;;;;;;17.25;16.25;;;;;30.30;42.44;99525.19;3561173;40;9893;-65
2021/06/26 09:42:35;;;;;;;;;13.25;10.00;;;;;29.58;41.87;99519.09;3558846;40;10138;-59
2021/06/26 09:45:09;;;;;;;;;12.75;11.75;;;;;28.59;45.39;99515.63;3561225;40;10033;-59
2021/06/26 09:47:47;;;;;;;;;13.25;11.50;;;;;29.96;41.86;99510.78;3558398;40;9950;-59
2021/06/26 09:50:27;;;;;;;;;13.50;11.00;;;;;30.02;41.54;99524.75;3563157;40;10107;-59
2021/06/26 09:53:00;;;;;;;;;13.00;11.00;;;;;30.42;40.35;99530.00;3561948;40;9907;-60
2021/06/26 09:55:38;;;;;;;;;12.50;10.75;;;;;30.30;40.21;99522.41;3561872;40;10033;-60
2021/06/26 09:58:16;;;;;;;;;18.00;15.25;;;;;29.91;42.80;99521.66;3556609;40;9908;-59
2021/06/26 10:00:46;;;;;;;;;17.75;15.00;;;;;29.49;42.98;99518.50;3557825;40;10146;-59
2021/06/26 10:03:19;;;;;;;;;22.75;19.00;;;;;30.21;40.89;99523.75;3557509;40;9950;-59
2021/06/26 10:05:48;;;;;;;;;10.75;9.75;;;;;30.15;38.50;99528.28;3560898;40;10096;-59
2021/06/26 10:08:16;;;;;;;;;11.00;10.50;;;;;29.53;40.69;99519.75;3558352;40;10612;-57
2021/06/26 10:10:44;;;;;;;;;12.00;11.25;;;;;29.89;40.44;99529.34;3556138;40;9917;-59
2021/06/26 10:13:13;;;;;;;;;8.50;8.50;;;;;29.81;38.42;99532.38;3564066;40;9795;-59
2021/06/26 10:15:41;;;;;;;;;12.50;10.75;;;;;30.09;38.38;99529.16;3561663;40;9960;-59
2021/06/26 10:18:12;;;;;;;;;10.00;9.75;;;;;29.96;38.68;99523.75;3557576;40;10526;-59
2021/06/26 10:20:40;;;;;;;;;13.50;11.75;;;;;30.55;38.33;99529.88;3564160;40;10231;-59
2021/06/26 10:23:08;;;;;;;;;9.50;9.50;;;;;30.16;38.99;99520.81;3559030;40;9962;-57
2021/06/26 10:25:39;;;;;;;;;14.00;12.75;;;;;30.74;38.14;99522.41;3557221;40;9951;-59
2021/06/26 10:28:16;;;;;;;;;14.00;11.00;;;;;30.64;38.66;99531.25;3557150;40;10109;-60
2021/06/26 10:31:01;;;;;;;;;13.00;11.50;;;;;30.59;38.75;99526.38;3557458;40;10049;-59
2021/06/26 10:33:30;;;;;;;;;14.25;11.75;;;;;30.17;39.94;99528.03;3557465;40;9915;-59
2021/06/26 10:36:00;;;;;;;;;11.50;10.25;;;;;30.59;39.72;99531.09;3563685;40;9967;-59
2021/06/26 10:38:43;;;;;;;;;53.25;44.50;;;;;30.48;40.63;99529.91;3562501;40;11016;-59
2021/06/26 10:41:22;;;;;;;;;9.50;7.50;;;;;30.43;40.55;99526.16;3560010;40;10890;-59
2021/06/26 10:44:05;;;;;;;;;14.75;14.75;;;;;29.88;39.99;99530.41;3562477;40;9926;-59
2021/06/26 10:46:32;;;;;;;;;12.25;11.25;;;;;30.72;37.76;99524.56;3564281;40;9902;-59
2021/06/26 10:49:04;;;;;;;;;10.00;10.00;;;;;30.36;38.38;99521.53;3561494;40;9824;-59
2021/06/26 10:51:40;;;;;;;;;11.00;9.50;;;;;30.76;36.48;99521.09;3557330;40;10066;-59
2021/06/26 10:54:18;;;;;;;;;9.75;8.75;;;;;30.55;36.84;99522.41;3559567;40;9842;-59
2021/06/26 10:56:49;;;;;;;;;9.25;9.00;;;;;30.96;36.61;99515.34;3557290;40;10034;-59
2021/06/26 10:59:18;;;;;;;;;11.00;10.00;;;;;30.95;37.58;99510.06;3557618;40;10151;-59
2021/06/26 11:01:58;;;;;;;;;12.00;9.00;;;;;30.71;36.29;99515.41;3557236;40;9927;-60
2021/06/26 11:04:26;;;;;;;;;10.50;9.50;;;;;31.28;35.83;99526.25;3567002;40;10505;-59
2021/06/26 11:07:09;;;;;;;;;10.75;9.75;;;;;30.84;35.34;99518.06;3556225;40;10145;-59
2021/06/26 11:09:43;;;;;;;;;12.75;10.50;;;;;31.31;35.85;99514.72;3557257;40;10400;-61
2021/06/26 11:12:20;;;;;;;;;11.50;8.25;;;;;30.81;35.76;99507.44;3563365;40;10313;-62
2021/06/26 11:14:53;;;;;;;;;7.50;7.50;;;;;31.13;35.70;99504.50;3558741;40;10412;-63
2021/06/26 11:17:33;;;;;;;;;5.50;4.75;;;;;31.05;35.32;99494.56;3557477;40;10188;-62
2021/06/26 11:20:01;;;;;;;;;9.75;8.50;;;;;30.92;35.81;99497.50;3557113;40;10069;-62
2021/06/26 11:22:28;;;;;;;;;14.50;13.50;;;;;30.98;35.92;99501.25;3562728;40;9854;-60
2021/06/26 11:25:00;;;;;;;;;8.25;8.25;;;;;31.11;35.93;99512.19;3558297;40;10137;-62
2021/06/26 11:27:28;;;;;;;;;10.75;9.75;;;;;31.00;36.05;99505.50;3556049;40;9958;-63
2021/06/26 11:30:08;;;;;;;;;15.25;12.75;;;;;30.90;35.34;99499.66;3556883;40;10714;-63
2021/06/26 11:32:36;;;;;;;;;15.00;14.00;;;;;31.17;35.90;99511.25;3557528;40;9887;-61